Time,TemperatureF,DewpointF,PressureIn,WindDirection,WindDirectionDegrees,WindSpeedMPH,WindSpeedGustMPH,Humidity,HourlyPrecipIn,Conditions,Clouds,dailyrainin,SolarRadiationWatts/m^2,SoftwareType,DateUTC
2013-06-06 00:00:00,56.9,48.3,29.90,ESE,102,8.0,8.0,73,0.00,,,0.00,0,Wunderground v.1.15,2013-06-06 06:00:00,
2013-06-06 00:06:00,56.4,46.7,29.89,East,82,8.0,16.0,70,0.00,,,0.00,0,Wunderground v.1.15,2013-06-06 06:06:00,
2013-06-06 00:12:00,56.9,48.7,29.89,East,84,7.0,16.0,74,0.00,,,0.00,0,Wunderground v.1.15,2013-06-06 06:12:00,
2013-06-06 00:18:00,57.4,48.1,29.89,East,90,6.0,16.0,71,0.00,,,0.00,0,Wunderground v.1.15,2013-06-06 06:18:00,
2013-06-06 00:24:00,57.5,46.2,29.90,East,87,7.0,16.0,66,0.00,,,0.00,0,Wunderground v.1.15,2013-06-06 06:24:00,
2013-06-06 00:30:00,57.7,47.2,29.90,East,91,7.0,16.0,68,0.00,,,0.00,0,Wunderground v.1.15,2013-06-06 06:30:00,
2013-06-06 00:36:00,57.7,47.6,29.90,East,91,5.0,16.0,69,0.00,,,0.00,0,Wunderground v.1.15,2013-06-06 06:36:00,
2013-06-06 00:44:00,57.7,47.6,29.90,ESE,106,6.0,16.0,69,0.00,,,0.00,0,Wunderground v.1.15,2013-06-06 06:44:00,
2013-06-06 00:50:00,57.2,46.7,29.90,ESE,102,8.0,16.0,68,0.00,,,0.00,0,Wunderground v.1.15,2013-06-06 06:50:00,
2013-06-06 00:56:00,56.2,47.3,29.89,East,83,9.0,16.0,72,0.00,,,0.00,0,Wunderground v.1.15,2013-06-06 06:56:00,
2013-06-06 01:02:00,57.1,42.9,29.89,ESE,102,10.0,16.0,59,0.00,,,0.00,0,Wunderground v.1.15,2013-06-06 07:02:00,
2013-06-06 01:08:00,58.7,44.8,29.89,East,96,11.0,16.0,60,0.00,,,0.00,0,Wunderground v.1.15,2013-06-06 07:08:00,
2013-06-06 01:16:00,56.4,45.2,29.89,East,90,10.0,16.0,66,0.00,,,0.00,0,Wunderground v.1.15,2013-06-06 07:16:00,
2013-06-06 01:22:00,55.8,46.2,29.89,ENE,77,9.0,16.0,70,0.00,,,0.00,0,Wunderground v.1.15,2013-06-06 07:22:00,
2013-06-06 01:28:00,56.0,44.0,29.90,ENE,77,7.0,16.0,64,0.00,,,0.00,0,Wunderground v.1.15,2013-06-06 07:28:00,
2013-06-06 01:34:00,56.6,42.0,29.90,ENE,75,5.0,16.0,58,0.00,,,0.00,0,Wunderground v.1.15,2013-06-06 07:34:00,
2013-06-06 01:40:00,57.6,46.3,29.90,ENE,75,5.0,5.0,66,0.00,,,0.00,0,Wunderground v.1.15,2013-06-06 07:40:00,
2013-06-06 01:46:00,57.8,45.7,29.90,ENE,75,4.0,16.0,64,0.00,,,0.00,0,Wunderground v.1.15,2013-06-06 07:46:00,
2013-06-06 01:52:00,57.7,45.6,29.90,East,89,5.0,16.0,64,0.00,,,0.00,0,Wunderground v.1.15,2013-06-06 07:52:00,
2013-06-06 01:58:00,57.7,44.8,29.90,East,85,7.0,16.0,62,0.00,,,0.00,0,Wunderground v.1.15,2013-06-06 07:58:00,
2013-06-06 02:04:00,56.9,44.8,29.89,East,85,7.0,12.0,64,0.00,,,0.00,0,Wunderground v.1.15,2013-06-06 08:04:00,
2013-06-06 02:10:00,55.7,46.1,29.90,East,85,6.0,6.0,70,0.00,,,0.00,0,Wunderground v.1.15,2013-06-06 08:10:00,
2013-06-06 02:16:00,55.0,45.4,29.90,ENE,75,6.0,12.0,70,0.00,,,0.00,0,Wunderground v.1.15,2013-06-06 08:16:00,
2013-06-06 02:28:00,54.6,44.6,29.90,ESE,102,3.0,12.0,69,0.00,,,0.00,0,Wunderground v.1.15,2013-06-06 08:28:00,
2013-06-06 02:34:00,54.8,45.2,29.90,ESE,102,3.0,12.0,70,0.00,,,0.00,0,Wunderground v.1.15,2013-06-06 08:34:00,
2013-06-06 02:40:00,55.3,46.1,29.90,East,101,4.0,12.0,71,0.00,,,0.00,0,Wunderground v.1.15,2013-06-06 08:40:00,
2013-06-06 02:50:00,54.7,45.5,29.90,East,101,5.0,5.0,71,0.00,,,0.00,0,Wunderground v.1.15,2013-06-06 08:50:00,
2013-06-06 02:56:00,54.8,45.2,29.90,East,101,4.0,12.0,70,0.00,,,0.00,0,Wunderground v.1.15,2013-06-06 08:56:00,
2013-06-06 03:02:00,55.0,44.6,29.90,ENE,75,5.0,12.0,68,0.00,,,0.00,0,Wunderground v.1.15,2013-06-06 09:02:00,
2013-06-06 03:08:00,55.1,43.1,29.90,ENE,75,4.0,12.0,64,0.00,,,0.00,0,Wunderground v.1.15,2013-06-06 09:08:00,
2013-06-06 03:14:00,55.2,43.6,29.90,ENE,75,3.0,12.0,65,0.00,,,0.00,0,Wunderground v.1.15,2013-06-06 09:14:00,
2013-06-06 03:20:00,55.7,37.8,29.90,ENE,64,3.0,12.0,51,0.00,,,0.00,0,Wunderground v.1.15,2013-06-06 09:20:00,
2013-06-06 03:26:00,56.2,39.3,29.90,ENE,70,5.0,12.0,53,0.00,,,0.00,0,Wunderground v.1.15,2013-06-06 09:26:00,
2013-06-06 03:32:00,55.7,44.5,29.90,East,92,6.0,12.0,66,0.00,,,0.00,0,Wunderground v.1.15,2013-06-06 09:32:00,
2013-06-06 03:40:00,54.4,44.8,29.90,East,94,6.0,6.0,70,0.00,,,0.00,0,Wunderground v.1.15,2013-06-06 09:40:00,
2013-06-06 03:46:00,54.1,44.5,29.90,ESE,102,6.0,12.0,70,0.00,,,0.00,0,Wunderground v.1.15,2013-06-06 09:46:00,
2013-06-06 03:52:00,53.6,42.9,29.90,East,88,7.0,12.0,67,0.00,,,0.00,0,Wunderground v.1.15,2013-06-06 09:52:00,
2013-06-06 03:58:00,53.8,40.7,29.90,East,88,6.0,12.0,61,0.00,,,0.00,0,Wunderground v.1.15,2013-06-06 09:58:00,
2013-06-06 04:04:00,54.3,38.9,29.90,East,87,5.0,12.0,56,0.00,,,0.00,0,Wunderground v.1.15,2013-06-06 10:04:00,
2013-06-06 04:12:00,55.3,40.3,29.91,ENE,63,7.0,12.0,57,0.00,,,0.00,0,Wunderground v.1.15,2013-06-06 10:12:00,
2013-06-06 04:18:00,54.9,43.7,29.91,East,96,6.0,12.0,66,0.00,,,0.00,0,Wunderground v.1.15,2013-06-06 10:18:00,
2013-06-06 04:24:00,53.5,44.7,29.91,ESE,112,5.0,12.0,72,0.00,,,0.00,0,Wunderground v.1.15,2013-06-06 10:24:00,
2013-06-06 04:32:00,51.9,43.9,29.91,ESE,113,6.0,12.0,74,0.00,,,0.00,0,Wunderground v.1.15,2013-06-06 10:32:00,
2013-06-06 04:38:00,51.5,44.2,29.91,ESE,111,7.0,12.0,76,0.00,,,0.00,0,Wunderground v.1.15,2013-06-06 10:38:00,
2013-06-06 04:44:00,51.6,44.6,29.92,ESE,111,6.0,12.0,77,0.00,,,0.00,0,Wunderground v.1.15,2013-06-06 10:44:00,
2013-06-06 04:50:00,51.7,44.0,29.91,ESE,111,4.0,4.0,75,0.00,,,0.00,0,Wunderground v.1.15,2013-06-06 10:50:00,
2013-06-06 04:56:00,51.9,44.9,29.91,ESE,111,2.0,12.0,77,0.00,,,0.00,0,Wunderground v.1.15,2013-06-06 10:56:00,
2013-06-06 05:02:00,51.7,43.7,29.91,ESE,112,4.0,12.0,74,0.00,,,0.00,0,Wunderground v.1.15,2013-06-06 11:02:00,
2013-06-06 05:10:00,51.6,43.2,29.91,ESE,114,7.0,7.0,73,0.00,,,0.00,0,Wunderground v.1.15,2013-06-06 11:10:00,
2013-06-06 05:16:00,51.6,43.9,29.91,ESE,114,5.0,12.0,75,0.00,,,0.00,0,Wunderground v.1.15,2013-06-06 11:16:00,
2013-06-06 05:22:00,51.7,44.4,29.91,ESE,114,4.0,12.0,76,0.00,,,0.00,0,Wunderground v.1.15,2013-06-06 11:22:00,
2013-06-06 05:28:00,51.9,44.2,29.91,ESE,114,2.0,12.0,75,0.00,,,0.00,0,Wunderground v.1.15,2013-06-06 11:28:00,
2013-06-06 05:36:00,52.1,44.1,29.91,ESE,114,2.0,12.0,74,0.00,,,0.00,0,Wunderground v.1.15,2013-06-06 11:36:00,
2013-06-06 05:42:00,52.3,43.2,29.91,ESE,114,3.0,12.0,71,0.00,,,0.00,0,Wunderground v.1.15,2013-06-06 11:42:00,
2013-06-06 05:48:00,52.4,43.3,29.92,ESE,114,2.0,12.0,71,0.00,,,0.00,0,Wunderground v.1.15,2013-06-06 11:48:00,
2013-06-06 05:54:00,52.6,44.2,29.92,ESE,114,2.0,12.0,73,0.00,,,0.00,7,Wunderground v.1.15,2013-06-06 11:54:00,
2013-06-06 06:00:00,52.4,43.3,29.92,ESE,112,5.0,6.0,71,0.00,,,0.00,12,Wunderground v.1.15,2013-06-06 12:00:00,
2013-06-06 06:06:00,52.2,43.1,29.92,East,99,6.0,6.0,71,0.00,,,0.00,18,Wunderground v.1.15,2013-06-06 12:06:00,
2013-06-06 06:12:00,52.4,43.3,29.92,East,97,6.0,7.0,71,0.00,,,0.00,25,Wunderground v.1.15,2013-06-06 12:12:00,
2013-06-06 06:20:00,52.2,43.8,29.92,ESE,104,7.0,11.0,73,0.00,,,0.00,28,Wunderground v.1.15,2013-06-06 12:20:00,
2013-06-06 06:26:00,51.8,43.4,29.92,East,91,8.0,11.0,73,0.00,,,0.00,33,Wunderground v.1.15,2013-06-06 12:26:00,
2013-06-06 06:32:00,51.7,43.3,29.92,East,91,5.0,6.0,73,0.00,,,0.00,39,Wunderground v.1.15,2013-06-06 12:32:00,
2013-06-06 06:38:00,51.9,43.2,29.93,East,92,3.0,6.0,72,0.00,,,0.00,44,Wunderground v.1.15,2013-06-06 12:38:00,
2013-06-06 06:44:00,51.7,43.7,29.93,ESE,114,6.0,9.0,74,0.00,,,0.00,51,Wunderground v.1.15,2013-06-06 12:44:00,
2013-06-06 06:50:00,51.9,42.4,29.93,East,93,7.0,7.0,70,0.00,,,0.00,56,Wunderground v.1.15,2013-06-06 12:50:00,
2013-06-06 06:56:00,52.2,42.7,29.93,East,93,4.0,7.0,70,0.00,,,0.00,62,Wunderground v.1.15,2013-06-06 12:56:00,
2013-06-06 07:02:00,52.5,44.1,29.93,East,94,2.0,6.0,73,0.00,,,0.00,67,Wunderground v.1.15,2013-06-06 13:02:00,
2013-06-06 07:08:00,52.4,43.3,29.94,East,94,4.0,6.0,71,0.00,,,0.00,77,Wunderground v.1.15,2013-06-06 13:08:00,
2013-06-06 07:14:00,52.5,43.4,29.94,East,94,4.0,6.0,71,0.00,,,0.00,83,Wunderground v.1.15,2013-06-06 13:14:00,
2013-06-06 07:20:00,52.8,43.3,29.94,East,95,2.0,6.0,70,0.00,,,0.00,83,Wunderground v.1.15,2013-06-06 13:20:00,
2013-06-06 07:26:00,53.1,43.6,29.94,East,95,2.0,6.0,70,0.00,,,0.00,88,Wunderground v.1.15,2013-06-06 13:26:00,
2013-06-06 07:32:00,53.5,44.0,29.94,East,95,1.0,6.0,70,0.00,,,0.00,91,Wunderground v.1.15,2013-06-06 13:32:00,
2013-06-06 07:38:00,53.8,43.9,29.94,ESE,112,3.0,6.0,69,0.00,,,0.00,95,Wunderground v.1.15,2013-06-06 13:38:00,
2013-06-06 07:44:00,54.1,43.8,29.94,ESE,112,4.0,6.0,68,0.00,,,0.00,98,Wunderground v.1.15,2013-06-06 13:44:00,
2013-06-06 07:50:00,54.4,43.3,29.94,ESE,112,1.0,1.0,66,0.00,,,0.00,93,Wunderground v.1.15,2013-06-06 13:50:00,
2013-06-06 07:56:00,54.8,44.0,29.95,ESE,112,1.0,6.0,67,0.00,,,0.00,91,Wunderground v.1.15,2013-06-06 13:56:00,
2013-06-06 08:02:00,55.1,44.3,29.94,ESE,111,2.0,6.0,67,0.00,,,0.00,93,Wunderground v.1.15,2013-06-06 14:02:00,
2013-06-06 08:08:00,55.4,44.2,29.94,ENE,71,3.0,6.0,66,0.00,,,0.00,95,Wunderground v.1.15,2013-06-06 14:08:00,
2013-06-06 08:16:00,55.9,43.5,29.94,ENE,71,2.0,6.0,63,0.00,,,0.00,125,Wunderground v.1.15,2013-06-06 14:16:00,
2013-06-06 08:24:00,56.8,43.5,29.94,ENE,71,1.0,6.0,61,0.00,,,0.00,258,Wunderground v.1.15,2013-06-06 14:24:00,
2013-06-06 08:30:00,57.4,42.7,29.94,ENE,71,1.0,1.0,58,0.00,,,0.00,332,Wunderground v.1.15,2013-06-06 14:30:00,
2013-06-06 08:36:00,58.0,43.3,29.94,ENE,71,1.0,6.0,58,0.00,,,0.00,338,Wunderground v.1.15,2013-06-06 14:36:00,
2013-06-06 08:42:00,58.5,44.7,29.94,ENE,71,1.0,2.0,60,0.00,,,0.00,323,Wunderground v.1.15,2013-06-06 14:42:00,
2013-06-06 08:48:00,58.9,44.1,29.94,ENE,71,1.0,6.0,58,0.00,,,0.00,346,Wunderground v.1.15,2013-06-06 14:48:00,
2013-06-06 08:54:00,59.4,44.2,29.94,ENE,71,1.0,6.0,57,0.00,,,0.00,371,Wunderground v.1.15,2013-06-06 14:54:00,
2013-06-06 09:00:00,59.7,43.0,29.94,ENE,71,0.0,6.0,54,0.00,,,0.00,373,Wunderground v.1.15,2013-06-06 15:00:00,
2013-06-06 09:06:00,60.1,44.3,29.93,ENE,71,0.0,6.0,56,0.00,,,0.00,408,Wunderground v.1.15,2013-06-06 15:06:00,
2013-06-06 09:12:00,60.7,43.9,29.93,ENE,71,1.0,6.0,54,0.00,,,0.00,439,Wunderground v.1.15,2013-06-06 15:12:00,
2013-06-06 09:18:00,61.1,44.3,29.93,ENE,71,1.0,6.0,54,0.00,,,0.00,531,Wunderground v.1.15,2013-06-06 15:18:00,
2013-06-06 09:26:00,61.7,41.8,29.93,ENE,71,0.0,6.0,48,0.00,,,0.00,557,Wunderground v.1.15,2013-06-06 15:26:00,
2013-06-06 09:32:00,62.2,40.0,29.93,ENE,71,0.0,6.0,44,0.00,,,0.00,563,Wunderground v.1.15,2013-06-06 15:32:00,
2013-06-06 09:38:00,62.3,39.5,29.93,ENE,71,1.0,6.0,43,0.00,,,0.00,587,Wunderground v.1.15,2013-06-06 15:38:00,
2013-06-06 09:44:00,62.3,39.5,29.93,ENE,71,1.0,6.0,43,0.00,,,0.00,601,Wunderground v.1.15,2013-06-06 15:44:00,
2013-06-06 09:50:00,62.6,39.2,29.93,ENE,71,1.0,6.0,42,0.00,,,0.00,628,Wunderground v.1.15,2013-06-06 15:50:00,
2013-06-06 10:00:00,63.8,37.7,29.92,ENE,71,2.0,2.0,38,0.00,,,0.00,612,Wunderground v.1.15,2013-06-06 16:00:00,
2013-06-06 10:06:00,64.6,38.4,29.92,ENE,71,1.0,6.0,38,0.00,,,0.00,610,Wunderground v.1.15,2013-06-06 16:06:00,
2013-06-06 10:12:00,64.8,39.9,29.92,ENE,71,1.0,6.0,40,0.00,,,0.00,557,Wunderground v.1.15,2013-06-06 16:12:00,
2013-06-06 10:18:00,65.0,38.8,29.92,ENE,71,1.0,6.0,38,0.00,,,0.00,628,Wunderground v.1.15,2013-06-06 16:18:00,
2013-06-06 10:24:00,65.2,37.6,29.92,ENE,71,1.0,6.0,36,0.00,,,0.00,619,Wunderground v.1.15,2013-06-06 16:24:00,
2013-06-06 10:30:00,65.1,37.5,29.92,ENE,71,1.0,6.0,36,0.00,,,0.00,605,Wunderground v.1.15,2013-06-06 16:30:00,
2013-06-06 10:38:00,66.1,39.7,29.92,ENE,71,1.0,6.0,38,0.00,,,0.00,621,Wunderground v.1.15,2013-06-06 16:38:00,
2013-06-06 10:46:00,66.9,40.5,29.91,ENE,71,1.0,6.0,38,0.00,,,0.00,629,Wunderground v.1.15,2013-06-06 16:46:00,
2013-06-06 10:54:00,67.2,40.0,29.91,NE,46,2.0,6.0,37,0.00,,,0.00,533,Wunderground v.1.15,2013-06-06 16:54:00,
2013-06-06 11:00:00,67.3,37.2,29.91,NE,38,2.0,3.0,33,0.00,,,0.00,547,Wunderground v.1.15,2013-06-06 17:00:00,
2013-06-06 11:06:00,67.5,38.1,29.91,NE,38,3.0,3.0,34,0.00,,,0.00,561,Wunderground v.1.15,2013-06-06 17:06:00,
2013-06-06 11:12:00,68.0,40.7,29.91,NE,38,2.0,3.0,37,0.00,,,0.00,608,Wunderground v.1.15,2013-06-06 17:12:00,
2013-06-06 11:18:00,68.1,40.1,29.91,NNE,29,2.0,3.0,36,0.00,,,0.00,601,Wunderground v.1.15,2013-06-06 17:18:00,
2013-06-06 11:24:00,68.3,38.8,29.90,NNE,29,3.0,4.0,34,0.00,,,0.00,594,Wunderground v.1.15,2013-06-06 17:24:00,
2013-06-06 11:30:00,68.7,39.9,29.91,NNE,29,2.0,3.0,35,0.00,,,0.00,684,Wunderground v.1.15,2013-06-06 17:30:00,
2013-06-06 11:36:00,69.2,37.3,29.91,NNE,29,2.0,3.0,31,0.00,,,0.00,677,Wunderground v.1.15,2013-06-06 17:36:00,
2013-06-06 11:42:00,69.7,38.5,29.90,NNE,29,2.0,3.0,32,0.00,,,0.00,598,Wunderground v.1.15,2013-06-06 17:42:00,
2013-06-06 11:48:00,70.0,38.0,29.90,NNE,29,2.0,3.0,31,0.00,,,0.00,605,Wunderground v.1.15,2013-06-06 17:48:00,
2013-06-06 11:54:00,70.3,37.4,29.90,NNE,29,2.0,3.0,30,0.00,,,0.00,598,Wunderground v.1.15,2013-06-06 17:54:00,
2013-06-06 12:00:00,70.2,37.3,29.90,NNE,29,3.0,4.0,30,0.00,,,0.00,615,Wunderground v.1.15,2013-06-06 18:00:00,
2013-06-06 12:06:00,70.2,38.1,29.90,North,10,4.0,6.0,31,0.00,,,0.00,661,Wunderground v.1.15,2013-06-06 18:06:00,
2013-06-06 12:12:00,70.2,38.9,29.89,NW,323,5.0,5.0,32,0.00,,,0.00,670,Wunderground v.1.15,2013-06-06 18:12:00,
2013-06-06 12:20:00,70.2,41.3,29.89,NW,318,5.0,5.0,35,0.00,,,0.00,777,Wunderground v.1.15,2013-06-06 18:20:00,
2013-06-06 12:26:00,70.0,40.3,29.89,NW,318,4.0,5.0,34,0.00,,,0.00,710,Wunderground v.1.15,2013-06-06 18:26:00,
2013-06-06 12:32:00,70.0,38.8,29.89,NW,318,4.0,4.0,32,0.00,,,0.00,522,Wunderground v.1.15,2013-06-06 18:32:00,
2013-06-06 12:38:00,70.2,38.1,29.89,NW,318,3.0,4.0,31,0.00,,,0.00,533,Wunderground v.1.15,2013-06-06 18:38:00,
2013-06-06 12:44:00,70.2,38.9,29.89,West,275,4.0,4.0,32,0.00,,,0.00,608,Wunderground v.1.15,2013-06-06 18:44:00,
2013-06-06 12:50:00,70.0,40.3,29.89,West,275,4.0,4.0,34,0.00,,,0.00,483,Wunderground v.1.15,2013-06-06 18:50:00,
2013-06-06 12:56:00,70.0,40.3,29.88,West,275,4.0,4.0,34,0.00,,,0.00,591,Wunderground v.1.15,2013-06-06 18:56:00,
2013-06-06 13:02:00,70.2,38.9,29.88,West,275,4.0,5.0,32,0.00,,,0.00,847,Wunderground v.1.15,2013-06-06 19:02:00,
2013-06-06 13:10:00,70.4,39.1,29.88,West,275,5.0,5.0,32,0.00,,,0.00,770,Wunderground v.1.15,2013-06-06 19:10:00,
2013-06-06 13:16:00,70.6,39.3,29.88,West,275,5.0,5.0,32,0.00,,,0.00,969,Wunderground v.1.15,2013-06-06 19:16:00,
2013-06-06 13:22:00,70.9,39.6,29.88,West,262,4.0,4.0,32,0.00,,,0.00,719,Wunderground v.1.15,2013-06-06 19:22:00,
2013-06-06 13:28:00,71.4,38.3,29.87,West,261,4.0,4.0,30,0.00,,,0.00,889,Wunderground v.1.15,2013-06-06 19:28:00,
2013-06-06 13:34:00,71.8,38.7,29.87,West,261,3.0,3.0,30,0.00,,,0.00,854,Wunderground v.1.15,2013-06-06 19:34:00,
2013-06-06 13:36:00,72.0,40.5,29.87,West,261,3.0,4.0,32,0.00,,,0.00,714,Wunderground v.1.15,2013-06-06 19:36:00,
2013-06-06 13:44:00,72.2,39.0,29.87,West,261,3.0,3.0,30,0.00,,,0.00,735,Wunderground v.1.15,2013-06-06 19:44:00,
2013-06-06 13:50:00,72.7,41.1,29.87,West,261,3.0,3.0,32,0.00,,,0.00,842,Wunderground v.1.15,2013-06-06 19:50:00,
2013-06-06 13:56:00,72.9,39.6,29.86,West,261,3.0,5.0,30,0.00,,,0.00,700,Wunderground v.1.15,2013-06-06 19:56:00,
2013-06-06 14:02:00,73.1,40.7,29.86,West,261,3.0,3.0,31,0.00,,,0.00,598,Wunderground v.1.15,2013-06-06 20:02:00,
2013-06-06 14:08:00,73.1,40.7,29.86,West,261,3.0,4.0,31,0.00,,,0.00,613,Wunderground v.1.15,2013-06-06 20:08:00,
2013-06-06 14:14:00,73.0,40.6,29.86,West,261,4.0,4.0,31,0.00,,,0.00,613,Wunderground v.1.15,2013-06-06 20:14:00,
2013-06-06 14:20:00,72.6,41.8,29.85,West,261,4.0,4.0,33,0.00,,,0.00,728,Wunderground v.1.15,2013-06-06 20:20:00,
2013-06-06 14:26:00,72.9,40.5,29.85,West,261,3.0,4.0,31,0.00,,,0.00,881,Wunderground v.1.15,2013-06-06 20:26:00,
2013-06-06 14:32:00,73.1,40.7,29.85,West,261,3.0,3.0,31,0.00,,,0.00,837,Wunderground v.1.15,2013-06-06 20:32:00,
2013-06-06 14:38:00,73.4,41.7,29.84,West,261,4.0,4.0,32,0.00,,,0.00,835,Wunderground v.1.15,2013-06-06 20:38:00,
2013-06-06 14:44:00,73.6,41.1,29.84,West,261,4.0,4.0,31,0.00,,,0.00,731,Wunderground v.1.15,2013-06-06 20:44:00,
2013-06-06 14:50:00,73.5,41.8,29.84,West,261,4.0,5.0,32,0.00,,,0.00,475,Wunderground v.1.15,2013-06-06 20:50:00,
2013-06-06 14:56:00,73.5,42.6,29.84,West,261,4.0,5.0,33,0.00,,,0.00,940,Wunderground v.1.15,2013-06-06 20:56:00,
2013-06-06 15:02:00,73.7,41.2,29.83,West,261,5.0,5.0,31,0.00,,,0.00,921,Wunderground v.1.15,2013-06-06 21:02:00,
2013-06-06 15:08:00,73.9,40.5,29.83,WSW,249,5.0,5.0,30,0.00,,,0.00,900,Wunderground v.1.15,2013-06-06 21:08:00,
2013-06-06 15:14:00,74.2,43.2,29.83,WSW,249,4.0,5.0,33,0.00,,,0.00,881,Wunderground v.1.15,2013-06-06 21:14:00,
2013-06-06 15:26:00,74.9,42.2,29.83,WSW,242,4.0,5.0,31,0.00,,,0.00,854,Wunderground v.1.15,2013-06-06 21:26:00,
2013-06-06 15:32:00,75.5,41.9,29.83,WSW,242,4.0,4.0,30,0.00,,,0.00,853,Wunderground v.1.15,2013-06-06 21:32:00,
2013-06-06 15:38:00,75.7,42.1,29.82,WSW,242,4.0,4.0,30,0.00,,,0.00,847,Wunderground v.1.15,2013-06-06 21:38:00,
2013-06-06 15:44:00,75.8,40.4,29.82,WSW,242,3.0,3.0,28,0.00,,,0.00,847,Wunderground v.1.15,2013-06-06 21:44:00,
2013-06-06 15:50:00,76.1,42.4,29.82,West,267,3.0,4.0,30,0.00,,,0.00,629,Wunderground v.1.15,2013-06-06 21:50:00,
2013-06-06 15:56:00,75.9,41.3,29.81,West,280,3.0,5.0,29,0.00,,,0.00,325,Wunderground v.1.15,2013-06-06 21:56:00,
2013-06-06 16:04:00,75.9,46.3,29.81,WNW,285,5.0,5.0,35,0.00,,,0.00,814,Wunderground v.1.15,2013-06-06 22:04:00,
2013-06-06 16:10:00,76.2,42.5,29.81,West,271,5.0,5.0,30,0.00,,,0.00,784,Wunderground v.1.15,2013-06-06 22:10:00,
2013-06-06 16:16:00,76.4,41.8,29.80,West,271,4.0,5.0,29,0.00,,,0.00,779,Wunderground v.1.15,2013-06-06 22:16:00,
2013-06-06 16:22:00,76.7,41.1,29.80,West,271,4.0,4.0,28,0.00,,,0.00,765,Wunderground v.1.15,2013-06-06 22:22:00,
2013-06-06 16:30:00,76.9,42.2,29.80,West,275,4.0,7.0,29,0.00,,,0.00,427,Wunderground v.1.15,2013-06-06 22:30:00,
2013-06-06 16:36:00,76.6,42.8,29.80,West,263,5.0,7.0,30,0.00,,,0.00,798,Wunderground v.1.15,2013-06-06 22:36:00,
2013-06-06 16:42:00,75.8,46.9,29.80,WSW,251,7.0,11.0,36,0.00,,,0.00,765,Wunderground v.1.15,2013-06-06 22:42:00,
2013-06-06 16:48:00,74.9,46.1,29.80,WSW,258,10.0,13.0,36,0.00,,,0.00,171,Wunderground v.1.15,2013-06-06 22:48:00,
2013-06-06 17:00:00,73.3,46.2,29.79,WSW,252,14.0,14.0,38,0.00,,,0.00,211,Wunderground v.1.15,2013-06-06 23:00:00,
2013-06-06 17:06:00,73.0,48.5,29.79,WSW,256,13.0,16.0,42,0.00,,,0.00,207,Wunderground v.1.15,2013-06-06 23:06:00,
2013-06-06 17:12:00,72.6,46.9,29.79,West,260,14.0,16.0,40,0.00,,,0.00,195,Wunderground v.1.15,2013-06-06 23:12:00,
2013-06-06 17:18:00,72.6,50.6,29.79,WSW,251,14.0,16.0,46,0.00,,,0.00,207,Wunderground v.1.15,2013-06-06 23:18:00,
2013-06-06 17:24:00,72.4,48.6,29.79,WSW,255,14.0,15.0,43,0.00,,,0.00,243,Wunderground v.1.15,2013-06-06 23:24:00,
2013-06-06 17:30:00,72.4,46.7,29.79,West,264,15.0,15.0,40,0.00,,,0.00,271,Wunderground v.1.15,2013-06-06 23:30:00,
2013-06-06 17:36:00,72.5,47.5,29.79,West,275,15.0,16.0,41,0.00,,,0.00,733,Wunderground v.1.15,2013-06-06 23:36:00,
2013-06-06 17:44:00,72.3,45.9,29.79,West,275,16.0,16.0,39,0.00,,,0.00,163,Wunderground v.1.15,2013-06-06 23:44:00,
2013-06-06 17:54:00,72.1,48.4,29.79,West,264,13.0,14.0,43,0.00,,,0.00,146,Wunderground v.1.15,2013-06-06 23:54:00,
2013-06-06 18:00:00,71.9,49.4,29.79,West,262,13.0,13.0,45,0.00,,,0.00,120,Wunderground v.1.15,2013-06-07 00:00:00,
2013-06-06 18:06:00,71.7,47.4,29.79,WNW,291,11.0,13.0,42,0.00,,,0.00,109,Wunderground v.1.15,2013-06-07 00:06:00,
2013-06-06 18:14:00,71.7,49.2,29.80,WSW,242,8.0,8.0,45,0.00,,,0.00,93,Wunderground v.1.15,2013-06-07 00:14:00,
2013-06-06 18:20:00,71.5,42.4,29.79,SSW,199,7.0,36.0,35,0.00,,,0.00,334,Wunderground v.1.15,2013-06-07 00:20:00,
2013-06-06 18:26:00,70.9,42.6,29.78,West,268,13.0,36.0,36,0.00,,,0.01,522,Wunderground v.1.15,2013-06-07 00:26:00,
2013-06-06 18:38:00,72.0,43.6,29.79,SW,235,4.0,14.0,36,0.00,,,0.01,452,Wunderground v.1.15,2013-06-07 00:38:00,
2013-06-06 18:44:00,72.7,44.2,29.78,NE,53,2.0,3.0,36,0.00,,,0.01,401,Wunderground v.1.15,2013-06-07 00:44:00,
2013-06-06 18:56:00,73.6,46.4,29.78,NE,56,1.0,4.0,38,0.00,,,0.01,329,Wunderground v.1.15,2013-06-07 00:56:00,
2013-06-06 19:02:00,73.8,43.7,29.77,West,271,3.0,5.0,34,0.00,,,0.01,306,Wunderground v.1.15,2013-06-07 01:02:00,
2013-06-06 19:08:00,73.3,44.0,29.77,West,268,5.0,7.0,35,0.00,,,0.01,290,Wunderground v.1.15,2013-06-07 01:08:00,
2013-06-06 19:14:00,72.7,44.9,29.77,West,275,7.0,9.0,37,0.00,,,0.01,274,Wunderground v.1.15,2013-06-07 01:14:00,
2013-06-06 19:26:00,72.4,46.0,29.77,West,268,8.0,10.0,39,0.00,,,0.01,232,Wunderground v.1.15,2013-06-07 01:26:00,
2013-06-06 19:32:00,72.4,47.4,29.77,West,260,9.0,10.0,41,0.00,,,0.01,211,Wunderground v.1.15,2013-06-07 01:32:00,
2013-06-06 19:42:00,72.4,48.0,29.77,WSW,251,7.0,7.0,42,0.00,,,0.01,141,Wunderground v.1.15,2013-06-07 01:42:00,
2013-06-06 19:48:00,72.3,49.8,29.77,SW,230,7.0,7.0,45,0.00,,,0.01,32,Wunderground v.1.15,2013-06-07 01:48:00,
2013-06-06 19:54:00,71.5,47.2,29.77,SW,230,6.0,6.0,42,0.00,,,0.01,28,Wunderground v.1.15,2013-06-07 01:54:00,
2013-06-06 20:00:00,71.1,48.1,29.77,SW,230,5.0,5.0,44,0.00,,,0.01,69,Wunderground v.1.15,2013-06-07 02:00:00,
2013-06-06 20:08:00,70.7,50.0,29.77,SW,230,5.0,11.0,48,0.00,,,0.01,46,Wunderground v.1.15,2013-06-07 02:08:00,
2013-06-06 20:14:00,70.3,50.2,29.77,SW,230,5.0,11.0,49,0.00,,,0.01,51,Wunderground v.1.15,2013-06-07 02:14:00,
2013-06-06 20:20:00,70.1,51.7,29.77,SW,230,3.0,3.0,52,0.00,,,0.01,53,Wunderground v.1.15,2013-06-07 02:20:00,
2013-06-06 20:32:00,69.9,51.5,29.78,SW,230,1.0,11.0,52,0.00,,,0.01,46,Wunderground v.1.15,2013-06-07 02:32:00,
2013-06-06 20:40:00,69.5,53.1,29.77,SW,230,1.0,1.0,56,0.00,,,0.01,30,Wunderground v.1.15,2013-06-07 02:40:00,
2013-06-06 20:46:00,69.2,51.8,29.78,SW,230,1.0,11.0,54,0.00,,,0.01,28,Wunderground v.1.15,2013-06-07 02:46:00,
2013-06-06 20:52:00,68.8,51.5,29.78,SW,230,1.0,11.0,54,0.00,,,0.01,25,Wunderground v.1.15,2013-06-07 02:52:00,
2013-06-06 21:04:00,68.1,50.8,29.78,SW,230,1.0,11.0,54,0.00,,,0.01,11,Wunderground v.1.15,2013-06-07 03:04:00,
2013-06-06 21:10:00,67.9,51.1,29.78,SW,230,1.0,11.0,55,0.00,,,0.01,5,Wunderground v.1.15,2013-06-07 03:10:00,
2013-06-06 21:16:00,67.5,49.8,29.78,SW,230,1.0,11.0,53,0.00,,,0.01,0,Wunderground v.1.15,2013-06-07 03:16:00,
2013-06-06 21:22:00,67.5,49.3,29.78,SW,230,1.0,11.0,52,0.00,,,0.01,0,Wunderground v.1.15,2013-06-07 03:22:00,
2013-06-06 21:28:00,67.4,49.7,29.78,SW,230,0.0,11.0,53,0.00,,,0.01,0,Wunderground v.1.15,2013-06-07 03:28:00,
2013-06-06 21:34:00,67.1,49.9,29.78,SW,230,0.0,11.0,54,0.00,,,0.01,0,Wunderground v.1.15,2013-06-07 03:34:00,
2013-06-06 21:40:00,66.5,48.8,29.78,SW,230,2.0,11.0,53,0.00,,,0.01,0,Wunderground v.1.15,2013-06-07 03:40:00,
2013-06-06 21:46:00,66.0,49.8,29.78,ENE,64,4.0,11.0,56,0.00,,,0.01,0,Wunderground v.1.15,2013-06-07 03:46:00,
2013-06-06 21:52:00,65.6,49.0,29.78,ENE,68,6.0,11.0,55,0.00,,,0.01,0,Wunderground v.1.15,2013-06-07 03:52:00,
2013-06-06 22:00:00,65.1,50.4,29.79,ENE,73,5.0,11.0,59,0.00,,,0.01,0,Wunderground v.1.15,2013-06-07 04:00:00,
2013-06-06 22:08:00,64.6,48.5,29.79,ENE,66,5.0,11.0,56,0.00,,,0.01,0,Wunderground v.1.15,2013-06-07 04:08:00,
2013-06-06 22:10:00,64.4,49.3,29.79,ENE,61,6.0,11.0,58,0.00,,,0.01,0,Wunderground v.1.15,2013-06-07 04:10:00,
2013-06-06 22:20:00,63.5,49.4,29.80,ENE,57,9.0,12.0,60,0.00,,,0.01,0,Wunderground v.1.15,2013-06-07 04:20:00,
2013-06-06 22:26:00,63.4,48.8,29.79,ENE,67,10.0,12.0,59,0.00,,,0.01,0,Wunderground v.1.15,2013-06-07 04:26:00,
2013-06-06 22:32:00,63.3,49.2,29.79,ENE,60,10.0,11.0,60,0.00,,,0.01,0,Wunderground v.1.15,2013-06-07 04:32:00,
2013-06-06 22:38:00,63.2,48.6,29.80,ENE,59,11.0,13.0,59,0.00,,,0.01,0,Wunderground v.1.15,2013-06-07 04:38:00,
2013-06-06 22:44:00,63.1,48.5,29.79,ENE,69,11.0,11.0,59,0.00,,,0.01,0,Wunderground v.1.15,2013-06-07 04:44:00,
2013-06-06 22:50:00,63.1,49.0,29.79,ENE,78,9.0,11.0,60,0.00,,,0.01,0,Wunderground v.1.15,2013-06-07 04:50:00,
2013-06-06 22:56:00,63.1,49.4,29.79,East,87,8.0,11.0,61,0.00,,,0.01,0,Wunderground v.1.15,2013-06-07 04:56:00,
2013-06-06 23:04:00,62.6,49.4,29.79,East,86,7.0,11.0,62,0.00,,,0.01,0,Wunderground v.1.15,2013-06-07 05:04:00,
2013-06-06 23:10:00,61.8,49.1,29.79,East,82,8.0,11.0,63,0.00,,,0.01,0,Wunderground v.1.15,2013-06-07 05:10:00,
2013-06-06 23:18:00,60.9,49.9,29.79,East,89,10.0,12.0,67,0.00,,,0.01,0,Wunderground v.1.15,2013-06-07 05:18:00,
2013-06-06 23:28:00,59.2,50.5,29.79,East,91,12.0,12.0,73,0.00,,,0.01,0,Wunderground v.1.15,2013-06-07 05:28:00,
2013-06-06 23:34:00,58.7,50.8,29.79,East,84,10.0,12.0,75,0.00,,,0.01,0,Wunderground v.1.15,2013-06-07 05:34:00,
2013-06-06 23:44:00,59.1,49.7,29.79,East,81,9.0,11.0,71,0.00,,,0.01,0,Wunderground v.1.15,2013-06-07 05:44:00,
2013-06-06 23:50:00,59.2,49.8,29.79,ENE,66,10.0,11.0,71,0.00,,,0.01,0,Wunderground v.1.15,2013-06-07 05:50:00,
2013-06-06 23:56:00,59.3,50.3,29.79,ENE,64,11.0,12.0,72,0.00,,,0.01,0,Wunderground v.1.15,2013-06-07 05:56:00,